Latest Weather Observations for Outer Harbor (Black Pole)

IDS60901

Issued at 7:31 am CST Tuesday 7 April 2020 (issued every 10 minutes, with the page automatically refreshed every 10 minutes)

About weather observations | Map of Adelaide area stations | Latest observations for Adelaide area | Other Formats
Station Details ID: 023052 Name: BLACK POLE Lat: -34.73 Lon: 138.47 Height: 6.27 m
Data from the previous 72 hours. | See also: Recent months for locations in South Australia
Date/Time
CST
Temp
°C
App
Temp
°C
Dew
Point
°C
Rel
Hum
%
Delta-T
°C
Wind Press
QNH
hPa
Press
MSL
hPa
Rain since
9am
mm
Dir  Spd
km/h
Gust
km/h
Spd
kts
Gust
kts
07/07:30am - - - - - NE 9 11 5 6 - - -
07/07:00am - - - - - NNE 9 11 5 6 - - -
07/06:30am - - - - - ENE 9 13 5 7 - - -
07/06:00am - - - - - NE 9 11 5 6 - - -
07/05:30am - - - - - NE 9 13 5 7 - - -
07/05:00am - - - - - ENE 9 11 5 6 - - -
07/04:30am - - - - - ENE 6 7 3 4 - - -
07/04:00am - - - - - E 7 9 4 5 - - -
07/03:30am - - - - - ENE 7 9 4 5 - - -
07/03:00am - - - - - E 9 11 5 6 - - -
07/02:30am - - - - - E 9 11 5 6 - - -
07/02:00am - - - - - ENE 9 11 5 6 - - -
07/01:30am - - - - - E 11 13 6 7 - - -
07/01:00am - - - - - E 13 15 7 8 - - -
07/12:30am - - - - - E 13 15 7 8 - - -
07/12:00am - - - - - ESE 11 13 6 7 - - -
 
Date/Time
CST
Temp
°C
App
Temp
°C
Dew
Point
°C
Rel
Hum
%
Delta-T
°C
Wind Press
QNH
hPa
Press
MSL
hPa
Rain since
9am
mm
Dir  Spd
km/h
Gust
km/h
Spd
kts
Gust
kts
06/11:30pm - - - - - SE 7 9 4 5 - - -
06/11:00pm - - - - - SE 11 13 6 7 - - -
06/10:30pm - - - - - SSE 11 15 6 8 - - -
06/10:00pm - - - - - SSE 15 19 8 10 - - -
06/09:30pm - - - - - SSE 13 17 7 9 - - -
06/09:00pm - - - - - SSE 13 19 7 10 - - -
06/08:30pm - - - - - S 15 19 8 10 - - -
06/08:00pm - - - - - S 19 20 10 11 - - -
06/07:30pm - - - - - S 17 20 9 11 - - -
06/07:00pm - - - - - SSW 19 22 10 12 - - -
06/06:30pm - - - - - SSW 17 20 9 11 - - -
06/06:00pm - - - - - SSW 13 15 7 8 - - -
06/05:30pm - - - - - SW 9 13 5 7 - - -
06/05:00pm - - - - - SW 11 13 6 7 - - -
06/04:30pm - - - - - SW 11 15 6 8 - - -
06/04:00pm - - - - - SSW 13 15 7 8 - - -
06/03:30pm - - - - - SSW 11 13 6 7 - - -
06/03:00pm - - - - - SW 13 15 7 8 - - -
06/02:30pm - - - - - SW 11 15 6 8 - - -
06/02:00pm - - - - - WSW 11 13 6 7 - - -
06/01:30pm - - - - - WSW 13 17 7 9 - - -
06/01:00pm - - - - - WSW 9 13 5 7 - - -
06/12:30pm - - - - - SW 9 13 5 7 - - -
06/12:00pm - - - - - SW 7 9 4 5 - - -
06/11:30am - - - - - WSW 6 7 3 4 - - -
06/11:00am - - - - - CALM 0 0 0 0 - - -
06/10:30am - - - - - WSW 2 4 1 2 - - -
06/10:00am - - - - - NW 2 7 1 4 - - -
06/09:30am - - - - - NE 9 11 5 6 - - -
06/09:00am - - - - - NE 11 13 6 7 - - -
06/08:30am - - - - - NE 11 13 6 7 - - -
06/08:00am - - - - - ENE 9 11 5 6 - - -
06/07:30am - - - - - NNE 9 11 5 6 - - -
06/07:00am - - - - - NNE 7 9 4 5 - - -
06/06:30am - - - - - NNE 6 7 3 4 - - -
06/06:00am - - - - - NNE 9 11 5 6 - - -
06/05:30am - - - - - NE 7 11 4 6 - - -
06/05:00am - - - - - ENE 7 11 4 6 - - -
06/04:30am - - - - - E 7 11 4 6 - - -
06/04:00am - - - - - SE 11 15 6 8 - - -
06/03:30am - - - - - E 11 15 6 8 - - -
06/03:00am - - - - - SSW 20 24 11 13 - - -
06/02:30am - - - - - SSW 20 26 11 14 - - -
06/02:00am - - - - - SSW 22 26 12 14 - - -
06/01:30am - - - - - SSW 20 24 11 13 - - -
06/01:00am - - - - - SSW 22 28 12 15 - - -
06/12:30am - - - - - SSW 24 30 13 16 - - -
06/12:00am - - - - - SSW 20 24 11 13 - - -
 
Date/Time
CST
Temp
°C
App
Temp
°C
Dew
Point
°C
Rel
Hum
%
Delta-T
°C
Wind Press
QNH
hPa
Press
MSL
hPa
Rain since
9am
mm
Dir  Spd
km/h
Gust
km/h
Spd
kts
Gust
kts
05/11:30pm - - - - - SW 19 24 10 13 - - -
05/11:00pm - - - - - WSW 22 26 12 14 - - -
05/10:30pm - - - - - WSW 19 24 10 13 - - -
05/10:00pm - - - - - WSW 28 33 15 18 - - -
05/09:30pm - - - - - WSW 30 39 16 21 - - -
05/09:00pm - - - - - WSW 32 39 17 21 - - -
05/08:30pm - - - - - WSW 35 43 19 23 - - -
05/08:00pm - - - - - WSW 35 44 19 24 - - -
05/07:30pm - - - - - WSW 35 41 19 22 - - -
05/07:00pm - - - - - SW 35 41 19 22 - - -
05/06:30pm - - - - - WSW 32 43 17 23 - - -
05/06:00pm - - - - - WSW 30 35 16 19 - - -
05/05:30pm - - - - - W 37 50 20 27 - - -
05/05:00pm - - - - - WSW 35 46 19 25 - - -
05/04:30pm - - - - - WSW 37 43 20 23 - - -
05/04:00pm - - - - - WSW 35 43 19 23 - - -
05/03:30pm - - - - - WSW 32 43 17 23 - - -
05/03:00pm - - - - - W 35 44 19 24 - - -
05/02:30pm - - - - - W 35 43 19 23 - - -
05/02:00pm - - - - - WNW 37 43 20 23 - - -
05/01:30pm - - - - - WNW 32 35 17 19 - - -
05/01:00pm - - - - - W 33 41 18 22 - - -
05/12:30pm - - - - - WNW 26 37 14 20 - - -
05/12:00pm - - - - - W 28 33 15 18 - - -
05/11:30am - - - - - WNW 22 32 12 17 - - -
05/11:00am - - - - - WNW 28 33 15 18 - - -
05/10:30am - - - - - W 28 37 15 20 - - -
05/10:00am - - - - - W 33 41 18 22 - - -
05/09:30am - - - - - W 30 37 16 20 - - -
05/09:00am - - - - - W 35 46 19 25 - - -
05/08:30am - - - - - W 33 39 18 21 - - -
05/08:00am - - - - - W 37 46 20 25 - - -
05/07:30am - - - - - WSW 35 43 19 23 - - -
05/07:00am - - - - - WSW 33 39 18 21 - - -
05/06:30am - - - - - W 35 41 19 22 - - -
05/06:00am - - - - - W 37 48 20 26 - - -
05/05:30am - - - - - W 33 43 18 23 - - -
05/05:00am - - - - - WSW 35 43 19 23 - - -
05/04:30am - - - - - WSW 33 37 18 20 - - -
05/04:00am - - - - - W 32 39 17 21 - - -
05/03:30am - - - - - WSW 33 43 18 23 - - -
05/03:00am - - - - - WSW 35 41 19 22 - - -
05/03:30am - - - - - WSW 33 41 18 22 - - -
05/03:00am - - - - - WSW 35 44 19 24 - - -
05/02:30am - - - - - WSW 33 43 18 23 - - -
05/02:00am - - - - - WSW 35 41 19 22 - - -
05/01:30am - - - - - WSW 33 44 18 24 - - -
05/01:00am - - - - - WSW 32 39 17 21 - - -
05/12:30am - - - - - WSW 32 39 17 21 - - -
05/12:00am - - - - - SW 33 41 18 22 - - -
 
Date/Time
CST
Temp
°C
App
Temp
°C
Dew
Point
°C
Rel
Hum
%
Delta-T
°C
Wind Press
QNH
hPa
Press
MSL
hPa
Rain since
9am
mm
Dir  Spd
km/h
Gust
km/h
Spd
kts
Gust
kts
04/11:30pm - - - - - WSW 41 50 22 27 - - -
04/11:00pm - - - - - WSW 35 46 19 25 - - -
04/10:30pm - - - - - WSW 37 44 20 24 - - -
04/10:00pm - - - - - WSW 35 43 19 23 - - -
04/09:30pm - - - - - WSW 37 52 20 28 - - -
04/09:00pm - - - - - WSW 39 46 21 25 - - -
04/08:30pm - - - - - WSW 41 52 22 28 - - -
04/08:00pm - - - - - WSW 41 50 22 27 - - -
04/07:30pm - - - - - WSW 41 48 22 26 - - -
04/07:00pm - - - - - WSW 41 48 22 26 - - -
04/06:32pm - - - - - WSW 46 65 25 35 - - -
04/06:30pm - - - - - WSW 44 56 24 30 - - -
04/06:00pm - - - - - WSW 43 52 23 28 - - -
04/05:30pm - - - - - SW 43 52 23 28 - - -
04/05:00pm - - - - - SW 46 56 25 30 - - -
04/04:30pm - - - - - SW 41 52 22 28 - - -
04/04:00pm - - - - - WSW 48 61 26 33 - - -
04/03:30pm - - - - - WSW 48 63 26 34 - - -
04/03:00pm - - - - - WSW 48 63 26 34 - - -
04/02:30pm - - - - - WSW 50 61 27 33 - - -
04/02:00pm - - - - - WSW 48 59 26 32 - - -
04/01:30pm - - - - - WSW 37 44 20 24 - - -
04/01:00pm - - - - - SW 35 48 19 26 - - -
04/12:30pm - - - - - WSW 35 46 19 25 - - -
04/12:10pm - - - - - SW 37 57 20 31 - - -
04/12:00pm - - - - - WSW 39 43 21 23 - - -
04/11:30am - - - - - WSW 39 48 21 26 - - -
04/11:00am - - - - - WSW 43 52 23 28 - - -
04/10:30am - - - - - WSW 44 54 24 29 - - -
04/10:00am - - - - - WSW 43 56 23 30 - - -
04/09:30am - - - - - WSW 39 56 21 30 - - -
04/09:28am - - - - - WSW 41 61 22 33 - - -
04/09:00am - - - - - WSW 44 57 24 31 - - -

Latest Capital City Observations: Canberra | Sydney | Melbourne | Brisbane | Adelaide | Perth | Hobart | Darwin

Other formats

Comma delimited format used in spreadsheet applications
http://www.bom.gov.au/fwo/IDS60901/IDS60901.95675.axf

JavaScript Object Notation format (JSON) in row-major order
http://www.bom.gov.au/fwo/IDS60901/IDS60901.95675.json

Data quality

Most of these data are generated automatically and are frequently updated. Quality checks on data are not normally performed. It is possible for incorrect values to appear. Refer to information at About Latest Weather Observations and please check the disclaimer before using these data.